createdAt,value
2022-11-10T00:01:38.640Z,1.43
2022-11-10T00:04:08.417Z,1.97
2022-11-10T00:06:38.206Z,1.40
2022-11-10T00:09:10.646Z,1.87
2022-11-10T00:11:40.698Z,1.10
2022-11-10T00:14:23.419Z,1.37
2022-11-10T00:17:05.026Z,1.40
2022-11-10T00:19:35.450Z,1.57
2022-11-10T00:22:05.499Z,1.67
2022-11-10T00:24:37.900Z,1.63
2022-11-10T00:27:07.655Z,1.73
2022-11-10T00:29:38.097Z,2.00
2022-11-10T00:32:08.245Z,2.10
2022-11-10T00:34:38.645Z,1.60
2022-11-10T00:37:08.421Z,2.00
2022-11-10T00:39:40.735Z,1.70
2022-11-10T00:42:10.695Z,1.70
2022-11-10T00:44:40.595Z,2.10
2022-11-10T00:47:10.341Z,1.80
2022-11-10T00:49:40.043Z,1.40
2022-11-10T00:52:09.764Z,1.63
2022-11-10T00:54:42.105Z,1.70
2022-11-10T00:57:11.863Z,2.00
2022-11-10T00:59:41.578Z,1.50
2022-11-10T01:02:11.277Z,2.30
2022-11-10T01:04:40.983Z,2.10
2022-11-10T01:07:10.748Z,1.77
2022-11-10T01:09:43.064Z,2.00
2022-11-10T01:12:12.779Z,2.07
2022-11-10T01:14:42.494Z,1.50
2022-11-10T01:17:12.208Z,1.60
2022-11-10T01:19:41.927Z,1.73
2022-11-10T01:22:11.754Z,2.07
2022-11-10T01:24:44.063Z,1.70
2022-11-10T01:27:16.052Z,1.70
2022-11-10T01:29:45.791Z,1.60
2022-11-10T01:32:15.623Z,2.33
2022-11-10T01:34:45.354Z,1.90
2022-11-10T01:37:15.501Z,1.80
2022-11-10T01:39:47.848Z,1.80
2022-11-10T01:42:17.649Z,2.17
2022-11-10T01:45:43.691Z,2.17
2022-11-10T01:48:17.756Z,1.97
2022-11-10T01:50:50.486Z,1.70
2022-11-10T01:53:26.833Z,1.87
2022-11-10T01:56:00.134Z,1.77
2022-11-10T01:58:34.945Z,2.00
2022-11-10T02:01:05.970Z,1.93
2022-11-10T02:03:42.076Z,1.90
2022-11-10T02:06:12.236Z,1.97
2022-11-10T02:08:42.801Z,1.90
2022-11-10T02:11:15.842Z,2.20
2022-11-10T02:13:45.969Z,2.10
2022-11-10T02:16:15.888Z,2.47
2022-11-10T02:18:45.564Z,2.77
2022-11-10T02:21:20.007Z,2.60
2022-11-10T02:23:51.618Z,2.60
2022-11-10T02:26:25.338Z,2.67
2022-11-10T02:28:55.039Z,2.37
2022-11-10T02:31:24.851Z,2.43
2022-11-10T02:33:54.569Z,2.60
2022-11-10T02:36:26.891Z,2.50
2022-11-10T02:38:56.591Z,2.40
2022-11-10T02:41:26.314Z,2.13
2022-11-10T02:43:57.479Z,2.30
2022-11-10T02:46:27.411Z,2.40
2022-11-10T02:48:57.099Z,2.60
2022-11-10T02:51:29.432Z,2.90
2022-11-10T02:53:59.113Z,2.50
2022-11-10T02:56:28.807Z,2.87
2022-11-10T02:58:58.517Z,2.87
2022-11-10T03:01:28.267Z,2.80
2022-11-10T03:03:58.053Z,2.30
2022-11-10T03:06:30.462Z,3.17
2022-11-10T03:09:00.458Z,2.50
2022-11-10T03:11:32.375Z,2.73
2022-11-10T03:14:02.927Z,2.93
2022-11-10T03:16:33.145Z,2.87
2022-11-10T03:19:02.852Z,2.83
2022-11-10T03:21:35.287Z,2.23
2022-11-10T03:24:05.091Z,2.87
2022-11-10T03:26:34.776Z,3.17
2022-11-10T03:29:04.521Z,2.90
2022-11-10T03:31:34.241Z,2.73
2022-11-10T03:34:03.976Z,2.50
2022-11-10T03:36:36.274Z,2.87
2022-11-10T03:39:06.275Z,2.63
2022-11-10T03:41:36.703Z,2.30
2022-11-10T03:44:06.793Z,3.03
2022-11-10T03:46:36.538Z,2.40
2022-11-10T03:49:06.312Z,2.33
2022-11-10T03:51:38.638Z,2.20
2022-11-10T03:54:08.787Z,3.00
2022-11-10T03:56:38.508Z,3.10
2022-11-10T03:59:08.321Z,2.53
2022-11-10T04:01:38.094Z,2.87
2022-11-10T04:04:28.320Z,2.83
2022-11-10T04:07:13.031Z,3.00
2022-11-10T04:09:42.784Z,2.60
2022-11-10T04:12:25.262Z,2.97
2022-11-10T04:15:07.564Z,2.63
2022-11-10T04:17:37.288Z,2.87
2022-11-10T04:20:07.925Z,2.40
2022-11-10T04:22:53.153Z,2.83
2022-11-10T04:25:22.887Z,2.70
2022-11-10T04:27:52.639Z,3.17
2022-11-10T04:30:22.364Z,3.23
2022-11-10T04:32:52.069Z,2.63
2022-11-10T04:35:21.777Z,2.83
2022-11-10T04:37:54.084Z,3.30
2022-11-10T04:40:23.808Z,3.90
2022-11-10T04:42:53.485Z,3.17
2022-11-10T04:45:23.205Z,3.17
2022-11-10T04:47:52.923Z,2.90
2022-11-10T04:50:22.600Z,3.30
2022-11-10T04:52:54.927Z,3.27
2022-11-10T04:55:24.609Z,2.50
2022-11-10T04:57:54.337Z,3.00
2022-11-10T05:00:24.480Z,3.27
2022-11-10T05:02:54.200Z,3.33
2022-11-10T05:05:23.908Z,3.10
2022-11-10T05:07:56.303Z,2.83
2022-11-10T05:10:26.450Z,3.57
2022-11-10T05:12:56.963Z,3.13
2022-11-10T05:15:27.333Z,3.20
2022-11-10T05:17:57.955Z,3.67
2022-11-10T05:20:28.841Z,3.53
2022-11-10T05:23:13.542Z,3.30
2022-11-10T05:25:45.044Z,3.43
2022-11-10T05:28:16.541Z,3.73
2022-11-10T05:30:47.170Z,3.20
2022-11-10T05:33:17.044Z,3.43
2022-11-10T05:35:47.020Z,2.97
2022-11-10T05:38:19.371Z,3.43
2022-11-10T05:40:49.144Z,3.30
2022-11-10T05:43:19.242Z,3.53
2022-11-10T05:45:49.086Z,3.33
2022-11-10T05:48:19.092Z,3.10
2022-11-10T05:50:49.830Z,2.50
2022-11-10T05:53:22.492Z,2.80
2022-11-10T05:55:52.432Z,2.57
2022-11-10T05:58:22.135Z,3.50
2022-11-10T06:00:51.863Z,3.17
2022-11-10T06:03:23.102Z,2.80
2022-11-10T06:05:53.499Z,2.53
2022-11-10T06:08:25.828Z,3.47
2022-11-10T06:10:55.560Z,3.23
2022-11-10T06:13:25.617Z,3.40
2022-11-10T06:15:55.479Z,2.57
2022-11-10T06:18:25.210Z,2.83
2022-11-10T06:20:54.888Z,3.37
2022-11-10T06:23:27.221Z,2.87
2022-11-10T06:25:56.960Z,3.17
2022-11-10T06:28:26.644Z,3.50
2022-11-10T06:30:59.612Z,2.90
2022-11-10T06:33:29.386Z,3.10
2022-11-10T06:35:59.072Z,2.63
2022-11-10T06:38:31.379Z,2.93
2022-11-10T06:41:01.108Z,2.90
2022-11-10T06:43:30.807Z,2.83
2022-11-10T06:46:00.465Z,3.67
2022-11-10T06:48:30.184Z,3.07
2022-11-10T06:51:03.417Z,2.93
2022-11-10T06:53:35.702Z,2.67
2022-11-10T06:56:05.403Z,3.23
2022-11-10T06:58:35.105Z,2.67
2022-11-10T07:01:04.894Z,2.90
2022-11-10T07:03:38.840Z,3.03
2022-11-10T07:06:14.575Z,2.78
2022-11-10T07:08:47.879Z,2.67
2022-11-10T07:11:18.108Z,2.53
2022-11-10T07:13:47.975Z,2.60
2022-11-10T07:16:23.288Z,3.10
2022-11-10T07:18:54.127Z,3.23
2022-11-10T07:21:23.908Z,2.90
2022-11-10T07:23:56.231Z,3.00
2022-11-10T07:26:25.966Z,3.70
2022-11-10T07:28:55.683Z,2.97
2022-11-10T07:31:25.510Z,2.45
2022-11-10T07:33:55.759Z,3.03
2022-11-10T07:36:29.097Z,3.30
2022-11-10T07:39:01.430Z,3.00
2022-11-10T07:41:31.244Z,3.30
2022-11-10T07:44:00.970Z,3.40
2022-11-10T07:46:30.718Z,2.95
2022-11-10T07:49:00.494Z,3.30
2022-11-10T07:51:30.960Z,3.08
2022-11-10T07:54:03.261Z,3.23
2022-11-10T07:56:32.987Z,9.93
2022-11-10T07:59:02.731Z,3.80
2022-11-10T08:01:34.217Z,2.80
2022-11-10T08:04:04.023Z,3.47
2022-11-10T08:06:36.238Z,3.27
2022-11-10T08:09:09.002Z,3.13
2022-11-10T08:11:38.684Z,3.30
2022-11-10T08:14:08.501Z,3.90
2022-11-10T08:16:38.241Z,3.70
2022-11-10T08:19:07.992Z,3.03
2022-11-10T08:21:37.703Z,3.17
2022-11-10T08:24:10.727Z,3.20
2022-11-10T08:26:40.441Z,3.23
2022-11-10T08:29:10.120Z,4.40
2022-11-10T08:31:40.620Z,4.17
2022-11-10T08:34:10.318Z,3.15
2022-11-10T08:36:40.505Z,3.72
2022-11-10T08:39:13.309Z,3.47
2022-11-10T08:41:47.252Z,3.50
2022-11-10T08:44:20.738Z,3.40
2022-11-10T08:46:50.805Z,3.30
2022-11-10T08:49:20.495Z,4.03
2022-11-10T08:51:50.261Z,3.47
2022-11-10T08:54:22.555Z,4.13
2022-11-10T08:56:52.333Z,4.10
2022-11-10T08:59:22.008Z,3.70
2022-11-10T09:01:51.733Z,3.63
2022-11-10T09:04:21.486Z,3.75
2022-11-10T09:06:51.192Z,3.13
2022-11-10T09:09:23.633Z,3.40
2022-11-10T09:11:53.471Z,3.42
2022-11-10T09:14:23.584Z,3.55
2022-11-10T09:16:53.470Z,3.43
2022-11-10T09:19:23.254Z,3.70
2022-11-10T09:21:52.996Z,3.67
2022-11-10T09:24:30.988Z,3.83
2022-11-10T09:27:01.469Z,3.60
2022-11-10T09:29:31.445Z,3.40
2022-11-10T09:32:01.236Z,3.83
2022-11-10T09:34:30.979Z,3.47
2022-11-10T09:37:00.811Z,3.40
2022-11-10T09:39:33.173Z,3.80
2022-11-10T09:42:03.045Z,2.88
2022-11-10T09:44:38.855Z,3.33
2022-11-10T09:47:19.057Z,4.07
2022-11-10T09:50:03.044Z,3.53
2022-11-10T09:52:38.107Z,3.22
2022-11-10T09:55:31.303Z,3.70
2022-11-10T09:58:02.715Z,3.05
2022-11-10T10:00:36.803Z,3.45
2022-11-10T10:03:09.216Z,3.42
2022-11-10T10:05:53.607Z,3.30
2022-11-10T10:08:35.881Z,3.70
2022-11-10T10:11:21.886Z,3.65
2022-11-10T10:14:12.529Z,3.33
2022-11-10T10:16:50.154Z,3.45
2022-11-10T10:19:28.376Z,3.53
2022-11-10T10:22:16.413Z,3.63
2022-11-10T10:24:46.182Z,3.85
2022-11-10T10:27:23.084Z,3.65
2022-11-10T10:29:52.896Z,4.07
2022-11-10T10:32:24.016Z,4.40
2022-11-10T10:34:54.209Z,4.32
2022-11-10T10:37:27.277Z,3.97
2022-11-10T10:39:58.593Z,3.65
2022-11-10T10:42:35.522Z,3.88
2022-11-10T10:45:24.994Z,3.30
2022-11-10T10:47:56.384Z,4.07
2022-11-10T10:50:29.966Z,4.07
2022-11-10T10:53:17.109Z,3.90
2022-11-10T10:55:54.939Z,3.53
2022-11-10T10:58:30.417Z,4.20
2022-11-10T11:01:07.847Z,3.60
2022-11-10T11:03:44.219Z,3.70
2022-11-10T11:06:25.647Z,3.88
2022-11-10T11:09:01.151Z,3.97
2022-11-10T11:11:34.068Z,3.50
2022-11-10T11:14:22.417Z,4.10
2022-11-10T11:16:55.068Z,4.13
2022-11-10T11:19:27.659Z,3.78
2022-11-10T11:22:14.755Z,4.05
2022-11-10T11:24:49.934Z,3.70
2022-11-10T11:27:26.971Z,3.83
2022-11-10T11:30:12.534Z,3.60
2022-11-10T11:33:14.456Z,4.55
2022-11-10T11:35:52.743Z,4.18
2022-11-10T11:38:32.181Z,4.05
2022-11-10T11:41:13.421Z,4.38
2022-11-10T11:44:03.603Z,3.92
2022-11-10T11:46:49.307Z,4.07
2022-11-10T11:49:56.133Z,4.03
2022-11-10T11:52:38.029Z,4.43
2022-11-10T11:55:23.212Z,3.72
2022-11-10T11:58:13.996Z,3.85
2022-11-10T12:00:53.827Z,4.38
2022-11-10T12:04:05.254Z,4.60
2022-11-10T12:06:48.154Z,4.57
2022-11-10T12:09:28.004Z,4.68
2022-11-10T12:12:13.455Z,4.40
2022-11-10T12:14:53.998Z,4.70
2022-11-10T12:17:42.101Z,4.40
2022-11-10T12:20:24.560Z,5.75
2022-11-10T12:23:08.224Z,3.97
2022-11-10T12:25:49.905Z,4.45
2022-11-10T12:28:25.003Z,4.75
2022-11-10T12:31:01.993Z,4.28
2022-11-10T12:33:39.593Z,3.83
2022-11-10T12:36:19.419Z,4.18
2022-11-10T12:39:00.496Z,4.13
2022-11-10T12:41:36.679Z,4.05
2022-11-10T12:44:11.136Z,4.03
2022-11-10T12:46:41.921Z,4.00
2022-11-10T12:49:20.244Z,3.97
2022-11-10T12:52:00.176Z,4.03
2022-11-10T12:54:32.908Z,4.20
2022-11-10T12:57:08.877Z,4.55
2022-11-10T12:59:40.935Z,4.70
2022-11-10T13:02:27.529Z,4.28
2022-11-10T13:05:14.867Z,4.20
2022-11-10T13:07:45.777Z,3.65
2022-11-10T13:10:25.784Z,4.00
2022-11-10T13:13:03.995Z,3.83
2022-11-10T13:15:55.171Z,3.80
2022-11-10T13:18:58.592Z,4.35
2022-11-10T13:21:58.084Z,3.78
2022-11-10T13:24:29.307Z,3.88
2022-11-10T13:27:03.072Z,3.40
2022-11-10T13:29:37.458Z,4.55
2022-11-10T13:32:30.332Z,3.60
2022-11-10T13:35:29.848Z,3.47
2022-11-10T13:38:00.472Z,4.10
2022-11-10T13:40:33.627Z,4.20
2022-11-10T13:43:30.622Z,3.60
2022-11-10T13:46:06.548Z,4.00
2022-11-10T13:48:59.118Z,4.85
2022-11-10T13:51:39.594Z,3.70
2022-11-10T13:54:25.561Z,4.00
2022-11-10T13:57:12.671Z,4.40
2022-11-10T13:59:53.192Z,3.33
2022-11-10T14:02:51.548Z,4.30
2022-11-10T14:06:05.944Z,3.55
2022-11-10T14:08:47.023Z,3.70
2022-11-10T14:11:25.292Z,3.87
2022-11-10T14:14:00.324Z,3.75
2022-11-10T14:16:35.584Z,3.40
2022-11-10T14:19:19.556Z,3.75
2022-11-10T14:21:58.010Z,3.08
2022-11-10T14:24:31.174Z,3.53
2022-11-10T14:27:03.246Z,3.40
2022-11-10T14:29:38.641Z,3.63
2022-11-10T14:32:18.357Z,3.20
2022-11-10T14:34:52.203Z,3.65
2022-11-10T14:37:25.979Z,4.33
2022-11-10T14:39:57.803Z,3.33
2022-11-10T14:42:29.425Z,3.90
2022-11-10T14:45:18.811Z,3.97
2022-11-10T14:47:57.019Z,3.25
2022-11-10T14:50:29.055Z,3.72
2022-11-10T14:53:03.652Z,3.53
2022-11-10T14:55:36.961Z,3.47
2022-11-10T14:58:11.149Z,3.20
2022-11-10T15:00:43.014Z,4.17
2022-11-10T15:03:24.124Z,3.72
2022-11-10T15:05:54.147Z,3.28
2022-11-10T15:08:24.369Z,3.40
2022-11-10T15:10:57.059Z,3.72
2022-11-10T15:13:39.677Z,3.50
2022-11-10T15:16:28.309Z,3.30
2022-11-10T15:19:24.814Z,4.00
2022-11-10T15:21:54.536Z,4.00
2022-11-10T15:24:30.055Z,3.33
2022-11-10T15:27:00.334Z,3.50
2022-11-10T15:29:32.895Z,3.60
2022-11-10T15:32:02.701Z,3.17
2022-11-10T15:34:44.441Z,3.72
2022-11-10T15:37:27.432Z,4.35
2022-11-10T15:40:29.686Z,4.30
2022-11-10T15:43:17.666Z,3.95
2022-11-10T15:45:50.131Z,4.75
2022-11-10T15:48:21.024Z,4.18
2022-11-10T15:50:56.348Z,3.63
2022-11-10T15:53:30.330Z,3.55
2022-11-10T15:56:00.049Z,3.85
2022-11-10T15:58:30.859Z,3.75
2022-11-10T16:01:00.634Z,3.85
2022-11-10T16:03:31.295Z,3.85
2022-11-10T16:06:03.629Z,3.07
2022-11-10T16:08:34.804Z,3.77
2022-11-10T16:11:04.820Z,3.70
2022-11-10T16:13:35.152Z,3.15
2022-11-10T16:16:06.436Z,3.40
2022-11-10T16:18:39.954Z,3.90
2022-11-10T16:21:18.219Z,3.50
2022-11-10T16:23:48.094Z,3.17
2022-11-10T16:26:21.474Z,2.80
2022-11-10T16:28:51.560Z,2.97
2022-11-10T16:31:23.348Z,3.40
2022-11-10T16:33:53.509Z,3.45
2022-11-10T16:36:29.455Z,3.65
2022-11-10T16:38:59.854Z,3.63
2022-11-10T16:41:29.577Z,3.67
2022-11-10T16:43:59.286Z,3.80
2022-11-10T16:46:31.901Z,4.37
2022-11-10T16:49:04.078Z,4.43
2022-11-10T16:51:45.624Z,3.85
2022-11-10T16:54:18.744Z,4.85
2022-11-10T16:56:48.467Z,3.63
2022-11-10T16:59:18.192Z,4.05
2022-11-10T17:01:49.540Z,3.88
2022-11-10T17:04:19.393Z,4.28
2022-11-10T17:06:51.721Z,4.93
2022-11-10T17:09:26.176Z,4.30
2022-11-10T17:11:55.886Z,3.60
2022-11-10T17:14:25.589Z,4.13
2022-11-10T17:16:58.202Z,3.92
2022-11-10T17:19:29.435Z,3.90
2022-11-10T17:22:01.791Z,4.20
2022-11-10T17:24:31.533Z,4.38
2022-11-10T17:27:01.347Z,4.32
2022-11-10T17:29:32.269Z,3.43
2022-11-10T17:32:01.994Z,3.83
2022-11-10T17:34:31.752Z,4.32
2022-11-10T17:37:04.099Z,4.10
2022-11-10T17:39:34.473Z,4.35
2022-11-10T17:42:04.720Z,4.63
2022-11-10T17:44:34.427Z,4.13
2022-11-10T17:47:04.155Z,4.30
2022-11-10T17:49:33.898Z,3.77
2022-11-10T17:52:06.591Z,4.17
2022-11-10T17:54:36.305Z,4.93
2022-11-10T17:57:06.844Z,3.90
2022-11-10T17:59:36.557Z,3.60
2022-11-10T18:02:07.071Z,3.40
2022-11-10T18:04:36.780Z,3.00
2022-11-10T18:07:09.200Z,3.03
2022-11-10T18:09:38.977Z,2.73
2022-11-10T18:12:08.915Z,2.90
2022-11-10T18:14:38.587Z,3.50
2022-11-10T18:17:08.334Z,3.40
2022-11-10T18:19:38.236Z,3.63
2022-11-10T18:22:10.541Z,3.03
2022-11-10T18:24:40.263Z,3.33
2022-11-10T18:27:09.951Z,3.77
2022-11-10T18:29:39.673Z,3.53
2022-11-10T18:32:09.575Z,3.53
2022-11-10T18:34:39.292Z,3.13
2022-11-10T18:37:11.619Z,2.65
2022-11-10T18:39:41.344Z,2.88
2022-11-10T18:42:11.088Z,2.90
2022-11-10T18:44:41.200Z,3.42
2022-11-10T18:47:11.172Z,2.70
2022-11-10T18:49:40.919Z,2.83
2022-11-10T18:52:13.475Z,2.83
2022-11-10T18:54:43.201Z,2.57
2022-11-10T18:57:16.748Z,3.25
2022-11-10T18:59:46.490Z,3.87
2022-11-10T19:02:16.765Z,2.92
2022-11-10T19:04:49.675Z,2.90
2022-11-10T19:07:25.716Z,2.67
2022-11-10T19:09:55.439Z,2.80
2022-11-10T19:12:26.712Z,2.80
2022-11-10T19:14:56.621Z,3.20
2022-11-10T19:17:26.523Z,2.70
2022-11-10T19:19:56.947Z,2.88
2022-11-10T19:22:29.535Z,2.60
2022-11-10T19:25:14.624Z,3.13
2022-11-10T19:27:44.315Z,2.90
2022-11-10T19:30:15.552Z,2.80
2022-11-10T19:32:45.256Z,3.05
2022-11-10T19:35:15.056Z,2.72
2022-11-10T19:37:52.431Z,2.80
2022-11-10T19:40:22.135Z,3.00
2022-11-10T19:42:52.048Z,2.60
2022-11-10T19:45:21.759Z,3.50
2022-11-10T19:47:51.474Z,2.83
2022-11-10T19:50:21.295Z,2.90
2022-11-10T19:52:53.599Z,2.70
2022-11-10T19:55:23.328Z,2.88
2022-11-10T19:57:53.052Z,3.40
2022-11-10T20:00:22.927Z,2.92
2022-11-10T20:02:52.775Z,2.70
2022-11-10T20:05:22.508Z,2.60
2022-11-10T20:08:09.821Z,2.22
2022-11-10T20:10:41.548Z,2.72
2022-11-10T20:13:14.112Z,2.72
2022-11-10T20:15:45.049Z,2.80
2022-11-10T20:18:15.020Z,2.97
2022-11-10T20:20:44.891Z,2.83
2022-11-10T20:23:17.747Z,2.90
2022-11-10T20:25:47.656Z,2.45
2022-11-10T20:28:17.387Z,3.28
2022-11-10T20:30:47.398Z,3.00
2022-11-10T20:33:17.122Z,2.70
2022-11-10T20:35:46.826Z,2.80
2022-11-10T20:38:19.336Z,3.17
2022-11-10T20:40:49.048Z,2.33
2022-11-10T20:43:18.769Z,2.40
2022-11-10T20:45:49.151Z,2.30
2022-11-10T20:48:18.874Z,3.22
2022-11-10T20:50:48.571Z,3.10
2022-11-10T20:53:21.143Z,3.17
2022-11-10T20:55:53.982Z,2.58
2022-11-10T20:58:24.250Z,2.70
2022-11-10T21:00:53.978Z,3.00
2022-11-10T21:03:24.749Z,2.70
2022-11-10T21:05:56.180Z,2.95
2022-11-10T21:08:28.925Z,2.70
2022-11-10T21:11:00.483Z,2.80
2022-11-10T21:13:28.560Z,2.95
2022-11-10T21:15:59.982Z,3.15
2022-11-10T21:18:32.116Z,3.00
2022-11-10T21:21:02.300Z,2.67
2022-11-10T21:23:34.594Z,2.72
2022-11-10T21:26:04.438Z,2.50
2022-11-10T21:28:36.249Z,2.78
2022-11-10T21:31:06.980Z,2.45
2022-11-10T21:33:36.689Z,2.60
2022-11-10T21:36:09.072Z,3.22
2022-11-10T21:38:42.450Z,2.75
2022-11-10T21:41:15.123Z,2.70
2022-11-10T21:43:44.800Z,2.72
2022-11-10T21:46:14.514Z,2.90
2022-11-10T21:48:44.239Z,2.60
2022-11-10T21:51:15.304Z,2.95
2022-11-10T21:53:47.637Z,2.80
2022-11-10T21:56:17.637Z,3.00
2022-11-10T21:58:47.368Z,2.58
2022-11-10T22:01:19.270Z,2.67
2022-11-10T22:03:49.826Z,2.88
2022-11-10T22:06:21.406Z,3.05
2022-11-10T22:08:54.259Z,3.42
2022-11-10T22:11:36.704Z,2.55
2022-11-10T22:14:26.046Z,3.03
2022-11-10T22:17:08.179Z,2.50
2022-11-10T22:19:41.118Z,3.03
2022-11-10T22:22:10.845Z,2.72
2022-11-10T22:24:43.191Z,2.87
2022-11-10T22:27:13.094Z,2.70
2022-11-10T22:29:42.821Z,3.08
2022-11-10T22:32:12.539Z,3.13
2022-11-10T22:34:42.241Z,3.03
2022-11-10T22:37:11.958Z,2.83
2022-11-10T22:39:56.682Z,2.70
2022-11-10T22:42:38.794Z,3.77
2022-11-10T22:45:09.888Z,2.90
2022-11-10T22:47:51.811Z,3.10
2022-11-10T22:50:21.522Z,3.75
2022-11-10T22:52:51.255Z,3.90
2022-11-10T22:55:23.572Z,3.47
2022-11-10T22:57:55.059Z,3.33
2022-11-10T23:00:25.052Z,3.92
2022-11-10T23:02:55.108Z,3.80
2022-11-10T23:05:24.804Z,3.45
2022-11-10T23:07:54.525Z,3.30
2022-11-10T23:10:26.823Z,3.47
2022-11-10T23:12:56.608Z,3.58
2022-11-10T23:15:26.781Z,3.05
2022-11-10T23:18:00.002Z,3.80
2022-11-10T23:20:33.623Z,3.55
2022-11-10T23:23:03.333Z,3.28
2022-11-10T23:25:35.699Z,3.88
2022-11-10T23:28:06.592Z,3.60
2022-11-10T23:30:36.373Z,3.55
2022-11-10T23:33:06.178Z,3.90
2022-11-10T23:35:35.870Z,3.80
2022-11-10T23:38:05.559Z,4.15
2022-11-10T23:40:37.871Z,3.93
2022-11-10T23:43:07.553Z,4.15
2022-11-10T23:46:05.301Z,4.50
2022-11-10T23:48:27.161Z,4.43
2022-11-10T23:50:57.549Z,3.97
2022-11-10T23:53:27.478Z,4.32
2022-11-10T23:56:04.300Z,4.53
2022-11-10T23:58:34.359Z,4.93
